createdAt,value
2022-12-11T00:02:29.411Z,19.83
2022-12-11T00:07:36.822Z,16.85
2022-12-11T00:12:44.354Z,15.27
2022-12-11T00:17:49.086Z,16.23
2022-12-11T00:22:56.363Z,17.20
2022-12-11T00:28:00.998Z,17.90
2022-12-11T00:33:05.660Z,42.60
2022-12-11T00:38:16.905Z,36.08
2022-12-11T00:43:21.609Z,23.65
2022-12-11T00:48:26.496Z,18.20
2022-12-11T00:53:34.200Z,18.75
2022-12-11T00:58:39.235Z,11.35
2022-12-11T01:03:44.756Z,19.33
2022-12-11T01:09:12.465Z,10.52
2022-12-11T01:14:17.309Z,9.90
2022-12-11T01:19:22.013Z,12.10
2022-12-11T01:24:29.549Z,5.82
2022-12-11T01:29:34.317Z,10.23
2022-12-11T01:34:39.491Z,10.07
2022-12-11T01:39:46.800Z,8.32
2022-12-11T01:45:06.465Z,8.57
2022-12-11T01:50:11.460Z,9.98
2022-12-11T01:55:19.125Z,3.03
2022-12-11T02:00:24.624Z,6.00
2022-12-11T02:05:29.373Z,2.30
2022-12-11T02:10:42.096Z,3.85
2022-12-11T02:15:51.992Z,5.78
2022-12-11T02:21:01.725Z,17.05
2022-12-11T02:26:15.504Z,10.17
2022-12-11T02:31:25.282Z,11.63
2022-12-11T02:36:32.616Z,8.25
2022-12-11T02:41:37.613Z,6.85
2022-12-11T02:46:46.017Z,11.73
2022-12-11T02:51:50.873Z,7.65
2022-12-11T02:56:57.403Z,15.75
2022-12-11T03:02:05.271Z,4.60
2022-12-11T03:07:12.458Z,7.45
2022-12-11T03:12:20.285Z,7.43
2022-12-11T03:17:32.458Z,9.45
2022-12-11T03:22:40.414Z,7.78
2022-12-11T03:27:48.156Z,7.63
2022-12-11T03:32:58.307Z,8.32
2022-12-11T03:38:05.333Z,7.95
2022-12-11T03:43:10.377Z,8.15
2022-12-11T03:48:18.425Z,7.47
2022-12-11T03:53:24.498Z,6.53
2022-12-11T03:58:29.342Z,7.00
2022-12-11T04:03:36.744Z,8.00
2022-12-11T04:08:41.503Z,6.97
2022-12-11T04:13:46.307Z,7.30
2022-12-11T04:19:20.533Z,6.72
2022-12-11T04:24:25.268Z,12.63
2022-12-11T04:29:29.993Z,7.82
2022-12-11T04:34:37.333Z,9.43
2022-12-11T04:39:45.228Z,9.27
2022-12-11T04:44:50.006Z,9.82
2022-12-11T04:49:57.371Z,9.82
2022-12-11T04:55:02.204Z,9.25
2022-12-11T05:00:08.373Z,9.32
2022-12-11T05:05:15.768Z,8.70
2022-12-11T05:10:20.616Z,8.77
2022-12-11T05:15:25.413Z,7.50
2022-12-11T05:20:32.804Z,7.30
2022-12-11T05:25:37.605Z,6.72
2022-12-11T05:30:42.345Z,7.07
2022-12-11T05:35:52.801Z,8.57
2022-12-11T05:41:01.192Z,6.53
2022-12-11T05:46:11.831Z,6.20
2022-12-11T05:51:20.013Z,6.80
2022-12-11T05:56:25.461Z,6.88
2022-12-11T06:01:32.146Z,9.00
2022-12-11T06:06:40.733Z,6.97
2022-12-11T06:11:45.826Z,7.03
2022-12-11T06:16:50.637Z,10.85
2022-12-11T06:21:58.170Z,10.93
2022-12-11T06:27:02.897Z,11.65
2022-12-11T06:32:07.984Z,9.10
2022-12-11T06:37:15.437Z,11.70
2022-12-11T06:42:20.297Z,11.13
2022-12-11T06:47:25.022Z,9.68
2022-12-11T06:52:33.133Z,11.23
2022-12-11T06:57:38.673Z,12.15
2022-12-11T07:02:43.396Z,9.50
2022-12-11T07:07:51.040Z,12.15
2022-12-11T07:12:56.283Z,12.98
2022-12-11T07:18:01.006Z,14.95
2022-12-11T07:23:09.289Z,13.55
2022-12-11T07:28:16.819Z,12.90
2022-12-11T07:33:21.796Z,15.18
2022-12-11T07:38:29.330Z,15.82
2022-12-11T07:43:34.347Z,15.18
2022-12-11T07:48:39.206Z,17.33
2022-12-11T07:53:46.758Z,84.55
2022-12-11T07:58:51.588Z,22.63
2022-12-11T08:03:56.667Z,20.30
2022-12-11T08:09:04.942Z,15.55
2022-12-11T08:14:09.769Z,16.75
2022-12-11T08:19:14.631Z,17.58
2022-12-11T08:24:22.093Z,23.52
2022-12-11T08:29:26.824Z,56.08
2022-12-11T08:34:31.746Z,26.05
2022-12-11T08:39:39.107Z,27.70
2022-12-11T08:44:43.916Z,43.05
2022-12-11T08:49:48.667Z,59.85
2022-12-11T08:54:56.117Z,29.55
2022-12-11T09:00:01.151Z,28.80
2022-12-11T09:05:08.402Z,26.60
2022-12-11T09:10:15.964Z,43.42
2022-12-11T09:15:20.809Z,60.17
2022-12-11T09:20:25.544Z,28.52
2022-12-11T09:25:32.885Z,28.98
2022-12-11T09:30:37.681Z,42.92
2022-12-11T09:35:43.319Z,32.45
2022-12-11T09:40:50.699Z,22.33
2022-12-11T09:45:56.569Z,48.17
2022-12-11T09:51:01.326Z,27.10
2022-12-11T09:56:14.670Z,36.65
2022-12-11T10:01:24.076Z,39.38
2022-12-11T10:06:31.484Z,34.60
2022-12-11T10:12:00.351Z,47.80
2022-12-11T10:17:13.022Z,28.55
2022-12-11T10:22:20.865Z,23.45
2022-12-11T10:27:28.715Z,26.40
2022-12-11T10:32:43.642Z,26.98
2022-12-11T10:37:48.390Z,38.83
2022-12-11T10:42:56.284Z,48.05
2022-12-11T10:48:13.695Z,38.90
2022-12-11T10:53:24.324Z,33.80
2022-12-11T10:58:32.051Z,49.20
2022-12-11T11:03:44.015Z,36.85
2022-12-11T11:08:49.651Z,39.47
2022-12-11T11:13:54.944Z,56.83
2022-12-11T11:19:02.431Z,32.58
2022-12-11T11:24:07.330Z,18.70
2022-12-11T11:29:22.711Z,41.55
2022-12-11T11:34:31.169Z,35.00
2022-12-11T11:39:38.397Z,34.10
2022-12-11T11:44:45.725Z,36.25
2022-12-11T11:49:56.142Z,16.67
2022-12-11T12:00:11.068Z,15.75
2022-12-11T12:05:18.839Z,37.33
2022-12-11T12:10:25.272Z,71.45
2022-12-11T12:15:36.174Z,71.03
2022-12-11T12:20:46.290Z,65.63
2022-12-11T12:25:54.555Z,52.05
2022-12-11T12:31:09.600Z,49.15
2022-12-11T12:36:20.226Z,30.20
2022-12-11T12:41:27.892Z,21.50
2022-12-11T12:46:42.688Z,28.77
2022-12-11T12:51:50.434Z,35.83
2022-12-11T12:56:55.250Z,51.13
2022-12-11T13:02:01.744Z,37.35
2022-12-11T13:07:23.696Z,35.92
2022-12-11T13:12:34.863Z,26.98
2022-12-11T13:17:40.748Z,27.08
2022-12-11T13:22:57.817Z,26.17
2022-12-11T13:28:09.434Z,22.30
2022-12-11T13:33:18.764Z,44.17
2022-12-11T13:38:27.008Z,22.27
2022-12-11T13:43:32.901Z,29.80
2022-12-11T13:48:39.721Z,28.27
2022-12-11T13:53:49.977Z,26.50
2022-12-11T13:58:54.800Z,22.42
2022-12-11T14:04:01.021Z,25.00
2022-12-11T14:09:08.737Z,26.17
2022-12-11T14:14:19.283Z,22.83
2022-12-11T14:19:25.158Z,22.48
2022-12-11T14:24:33.027Z,38.10
2022-12-11T14:29:37.652Z,34.50
2022-12-11T14:34:45.192Z,31.98
2022-12-11T14:39:55.248Z,27.95
2022-12-11T14:45:01.651Z,26.58
2022-12-11T14:50:08.497Z,32.50
2022-12-11T14:55:18.773Z,29.38
2022-12-11T15:00:24.827Z,24.38
2022-12-11T15:05:29.904Z,26.23
2022-12-11T15:10:40.350Z,25.42
2022-12-11T15:15:47.357Z,39.80
2022-12-11T15:20:53.928Z,34.22
2022-12-11T15:26:02.421Z,28.95
2022-12-11T15:31:08.745Z,25.27
2022-12-11T15:36:24.666Z,36.53
2022-12-11T15:41:34.803Z,52.80
2022-12-11T15:46:39.833Z,25.42
2022-12-11T15:51:44.682Z,30.75
2022-12-11T15:56:52.078Z,26.98
2022-12-11T16:01:56.854Z,61.33
2022-12-11T16:07:01.735Z,26.27
2022-12-11T16:12:09.352Z,42.53
2022-12-11T16:17:14.414Z,30.25
2022-12-11T16:22:19.746Z,63.13
2022-12-11T16:27:27.166Z,96.72
2022-12-11T16:32:31.887Z,55.20
2022-12-11T16:37:36.601Z,27.77
2022-12-11T16:42:43.882Z,19.02
2022-12-11T16:47:48.511Z,21.17
2022-12-11T16:52:53.329Z,19.20
2022-12-11T16:58:00.624Z,17.90
2022-12-11T17:03:05.590Z,20.95
2022-12-11T17:08:10.600Z,23.25
2022-12-11T17:13:18.018Z,24.05
2022-12-11T17:18:22.898Z,19.02
2022-12-11T17:23:28.020Z,18.65
2022-12-11T17:28:35.323Z,17.85
2022-12-11T17:33:40.097Z,18.63
2022-12-11T17:38:44.924Z,14.27
2022-12-11T17:43:52.816Z,18.20
2022-12-11T17:49:00.251Z,21.48
2022-12-11T17:54:05.052Z,27.60
2022-12-11T17:59:12.457Z,41.83
2022-12-11T18:04:17.248Z,22.10
2022-12-11T18:09:21.927Z,18.02
2022-12-11T18:14:29.253Z,22.58
2022-12-11T18:19:34.120Z,27.27
2022-12-11T18:24:38.919Z,72.22
2022-12-11T18:29:46.341Z,37.45
2022-12-11T18:34:51.102Z,26.73
2022-12-11T18:39:56.293Z,30.52
2022-12-11T18:45:04.082Z,23.67
2022-12-11T18:50:09.027Z,34.70
2022-12-11T18:55:14.009Z,35.33
2022-12-11T19:00:22.384Z,26.02
2022-12-11T19:05:27.153Z,27.83
2022-12-11T19:10:32.064Z,49.03
2022-12-11T19:15:40.355Z,25.23
2022-12-11T19:20:49.994Z,54.50
2022-12-11T19:25:57.102Z,37.58
2022-12-11T19:31:04.629Z,35.10
2022-12-11T19:36:11.168Z,33.58
2022-12-11T19:41:16.944Z,44.60
2022-12-11T19:46:24.946Z,38.60
2022-12-11T19:51:31.485Z,27.65
2022-12-11T19:56:37.119Z,25.70
2022-12-11T20:01:44.515Z,44.80
2022-12-11T20:06:50.068Z,30.02
2022-12-11T20:11:54.799Z,41.63
2022-12-11T20:17:11.832Z,26.42
2022-12-11T20:22:17.891Z,25.40
2022-12-11T20:27:22.737Z,28.30
2022-12-11T20:32:30.268Z,26.83
2022-12-11T20:37:35.369Z,19.42
2022-12-11T20:42:40.784Z,17.08
2022-12-11T20:47:48.694Z,25.02
2022-12-11T20:52:53.553Z,18.63
2022-12-11T20:57:58.267Z,25.15
2022-12-11T21:03:05.944Z,24.92
2022-12-11T21:08:10.803Z,23.10
2022-12-11T21:13:16.940Z,20.27
2022-12-11T21:18:24.484Z,15.55
2022-12-11T21:23:29.645Z,18.33
2022-12-11T21:28:35.752Z,15.65
2022-12-11T21:33:43.358Z,17.88
2022-12-11T21:38:48.559Z,36.08
2022-12-11T21:49:21.832Z,29.30
2022-12-11T21:54:26.540Z,18.83
2022-12-11T21:59:32.872Z,20.38
2022-12-11T22:04:40.846Z,20.08
2022-12-11T22:09:45.553Z,32.63
2022-12-11T22:14:50.292Z,21.25
2022-12-11T22:19:57.652Z,26.08
2022-12-11T22:25:03.748Z,23.55
2022-12-11T22:30:09.185Z,23.38
2022-12-11T22:35:16.696Z,28.67
2022-12-11T22:40:21.513Z,19.33
2022-12-11T22:45:26.759Z,24.98
2022-12-11T22:50:34.072Z,20.27
2022-12-11T22:55:41.386Z,30.13
2022-12-11T23:00:46.184Z,32.50
2022-12-11T23:05:53.540Z,19.98
2022-12-11T23:10:58.259Z,28.20
2022-12-11T23:16:02.960Z,31.50
2022-12-11T23:21:10.550Z,33.08
2022-12-11T23:26:15.940Z,18.58
2022-12-11T23:31:20.812Z,25.77
2022-12-11T23:36:28.718Z,39.78
2022-12-11T23:41:33.508Z,33.13
2022-12-11T23:46:38.336Z,20.15
2022-12-11T23:51:45.819Z,84.53
2022-12-11T23:56:50.541Z,31.98
